sensor_id;sensor_type;location;lat;lon;timestamp;temperature;humidity
13426;DHT22;6785;57.918;12.530;2022-10-31T00:00:43;13.40;99.90
13426;DHT22;6785;57.918;12.530;2022-10-31T00:03:10;13.40;99.90
13426;DHT22;6785;57.918;12.530;2022-10-31T00:05:41;13.40;99.90
13426;DHT22;6785;57.918;12.530;2022-10-31T00:08:10;13.40;99.90
13426;DHT22;6785;57.918;12.530;2022-10-31T00:10:38;13.40;99.90
13426;DHT22;6785;57.918;12.530;2022-10-31T00:13:05;13.40;99.90
13426;DHT22;6785;57.918;12.530;2022-10-31T00:15:32;13.40;99.90
13426;DHT22;6785;57.918;12.530;2022-10-31T00:17:59;13.40;99.90
13426;DHT22;6785;57.918;12.530;2022-10-31T00:20:27;13.40;99.90
13426;DHT22;6785;57.918;12.530;2022-10-31T00:22:57;13.40;99.90
13426;DHT22;6785;57.918;12.530;2022-10-31T00:25:26;13.40;99.90
13426;DHT22;6785;57.918;12.530;2022-10-31T00:27:54;13.40;99.90
13426;DHT22;6785;57.918;12.530;2022-10-31T00:30:21;13.50;99.90
13426;DHT22;6785;57.918;12.530;2022-10-31T00:32:48;13.40;99.90
13426;DHT22;6785;57.918;12.530;2022-10-31T00:35:15;13.50;99.90
13426;DHT22;6785;57.918;12.530;2022-10-31T00:37:42;13.50;99.90
13426;DHT22;6785;57.918;12.530;2022-10-31T00:40:10;13.50;99.90
13426;DHT22;6785;57.918;12.530;2022-10-31T00:42:40;13.50;99.90
13426;DHT22;6785;57.918;12.530;2022-10-31T00:45:08;13.50;99.90
13426;DHT22;6785;57.918;12.530;2022-10-31T00:47:36;13.50;99.90
13426;DHT22;6785;57.918;12.530;2022-10-31T00:50:04;13.50;99.90
13426;DHT22;6785;57.918;12.530;2022-10-31T00:52:32;13.50;99.90
13426;DHT22;6785;57.918;12.530;2022-10-31T00:54:59;13.50;99.90
13426;DHT22;6785;57.918;12.530;2022-10-31T00:57:26;13.50;99.90
13426;DHT22;6785;57.918;12.530;2022-10-31T00:59:54;13.50;99.90
13426;DHT22;6785;57.918;12.530;2022-10-31T01:02:21;13.50;99.90
13426;DHT22;6785;57.918;12.530;2022-10-31T01:04:48;13.50;99.90
13426;DHT22;6785;57.918;12.530;2022-10-31T01:07:15;13.50;99.90
13426;DHT22;6785;57.918;12.530;2022-10-31T01:09:42;13.60;99.90
13426;DHT22;6785;57.918;12.530;2022-10-31T01:12:09;13.50;99.90
13426;DHT22;6785;57.918;12.530;2022-10-31T01:14:36;13.60;99.90
13426;DHT22;6785;57.918;12.530;2022-10-31T01:17:05;13.50;99.90
13426;DHT22;6785;57.918;12.530;2022-10-31T01:19:32;13.50;99.90
13426;DHT22;6785;57.918;12.530;2022-10-31T01:21:59;13.60;99.90
13426;DHT22;6785;57.918;12.530;2022-10-31T01:24:26;13.50;99.90
13426;DHT22;6785;57.918;12.530;2022-10-31T01:26:53;13.60;99.90
13426;DHT22;6785;57.918;12.530;2022-10-31T01:29:20;13.50;99.90
13426;DHT22;6785;57.918;12.530;2022-10-31T01:31:47;13.50;99.90
13426;DHT22;6785;57.918;12.530;2022-10-31T01:34:16;13.50;99.90
13426;DHT22;6785;57.918;12.530;2022-10-31T01:36:45;13.50;99.90
13426;DHT22;6785;57.918;12.530;2022-10-31T01:39:17;13.40;99.90
13426;DHT22;6785;57.918;12.530;2022-10-31T01:41:46;13.40;99.90
13426;DHT22;6785;57.918;12.530;2022-10-31T01:44:49;13.40;99.90
13426;DHT22;6785;57.918;12.530;2022-10-31T01:47:27;13.30;99.90
13426;DHT22;6785;57.918;12.530;2022-10-31T01:50:04;13.30;99.90
13426;DHT22;6785;57.918;12.530;2022-10-31T01:52:38;13.30;99.90
13426;DHT22;6785;57.918;12.530;2022-10-31T01:55:12;13.30;99.90
13426;DHT22;6785;57.918;12.530;2022-10-31T01:57:46;13.30;99.90
13426;DHT22;6785;57.918;12.530;2022-10-31T02:00:17;13.20;99.90
13426;DHT22;6785;57.918;12.530;2022-10-31T02:02:46;13.30;99.90
13426;DHT22;6785;57.918;12.530;2022-10-31T02:05:19;13.30;99.90
13426;DHT22;6785;57.918;12.530;2022-10-31T02:07:54;13.30;99.90
13426;DHT22;6785;57.918;12.530;2022-10-31T02:10:25;13.30;99.90
13426;DHT22;6785;57.918;12.530;2022-10-31T02:12:56;13.30;99.90
13426;DHT22;6785;57.918;12.530;2022-10-31T02:15:25;13.30;99.90
13426;DHT22;6785;57.918;12.530;2022-10-31T02:17:53;13.30;99.90
13426;DHT22;6785;57.918;12.530;2022-10-31T02:20:23;13.30;99.90
13426;DHT22;6785;57.918;12.530;2022-10-31T02:30:07;13.20;99.90
13426;DHT22;6785;57.918;12.530;2022-10-31T02:32:52;13.30;99.90
13426;DHT22;6785;57.918;12.530;2022-10-31T02:35:39;13.20;99.90
13426;DHT22;6785;57.918;12.530;2022-10-31T02:38:26;13.20;99.90
13426;DHT22;6785;57.918;12.530;2022-10-31T02:41:06;13.20;99.90
13426;DHT22;6785;57.918;12.530;2022-10-31T02:43:42;13.20;99.90
13426;DHT22;6785;57.918;12.530;2022-10-31T02:46:24;13.20;99.90
13426;DHT22;6785;57.918;12.530;2022-10-31T02:49:02;13.10;99.90
13426;DHT22;6785;57.918;12.530;2022-10-31T02:51:34;13.10;99.90
13426;DHT22;6785;57.918;12.530;2022-10-31T02:54:02;13.10;99.90
13426;DHT22;6785;57.918;12.530;2022-10-31T02:56:29;13.10;99.90
13426;DHT22;6785;57.918;12.530;2022-10-31T02:59:01;13.10;99.90
13426;DHT22;6785;57.918;12.530;2022-10-31T03:01:56;13.10;99.90
13426;DHT22;6785;57.918;12.530;2022-10-31T03:04:52;13.30;99.90
13426;DHT22;6785;57.918;12.530;2022-10-31T03:07:44;13.30;99.90
13426;DHT22;6785;57.918;12.530;2022-10-31T03:10:25;13.30;99.90
13426;DHT22;6785;57.918;12.530;2022-10-31T03:13:01;13.30;99.90
13426;DHT22;6785;57.918;12.530;2022-10-31T03:15:37;13.30;99.90
13426;DHT22;6785;57.918;12.530;2022-10-31T03:18:09;13.30;99.90
13426;DHT22;6785;57.918;12.530;2022-10-31T03:20:45;13.30;99.90
13426;DHT22;6785;57.918;12.530;2022-10-31T03:23:18;13.30;99.90
13426;DHT22;6785;57.918;12.530;2022-10-31T03:25:48;13.30;99.90
13426;DHT22;6785;57.918;12.530;2022-10-31T03:28:20;13.30;99.90
13426;DHT22;6785;57.918;12.530;2022-10-31T03:30:52;13.30;99.90
13426;DHT22;6785;57.918;12.530;2022-10-31T03:33:24;13.30;99.90
13426;DHT22;6785;57.918;12.530;2022-10-31T03:35:57;13.30;99.90
13426;DHT22;6785;57.918;12.530;2022-10-31T03:38:28;13.30;99.90
13426;DHT22;6785;57.918;12.530;2022-10-31T03:40:58;13.30;99.90
13426;DHT22;6785;57.918;12.530;2022-10-31T03:43:32;13.30;99.90
13426;DHT22;6785;57.918;12.530;2022-10-31T03:46:05;13.30;99.90
13426;DHT22;6785;57.918;12.530;2022-10-31T03:48:32;13.30;99.90
13426;DHT22;6785;57.918;12.530;2022-10-31T03:51:08;13.30;99.90
13426;DHT22;6785;57.918;12.530;2022-10-31T03:53:45;13.30;99.90
13426;DHT22;6785;57.918;12.530;2022-10-31T03:56:20;13.30;99.90
13426;DHT22;6785;57.918;12.530;2022-10-31T03:58:57;13.30;99.90
13426;DHT22;6785;57.918;12.530;2022-10-31T04:01:30;13.30;99.90
13426;DHT22;6785;57.918;12.530;2022-10-31T04:04:00;13.20;99.90
13426;DHT22;6785;57.918;12.530;2022-10-31T04:06:30;13.20;99.90
13426;DHT22;6785;57.918;12.530;2022-10-31T04:09:00;13.30;99.90
13426;DHT22;6785;57.918;12.530;2022-10-31T04:11:32;13.20;99.90
13426;DHT22;6785;57.918;12.530;2022-10-31T04:14:04;13.20;99.90
13426;DHT22;6785;57.918;12.530;2022-10-31T04:16:32;13.30;99.90
13426;DHT22;6785;57.918;12.530;2022-10-31T04:19:00;13.30;99.90
13426;DHT22;6785;57.918;12.530;2022-10-31T04:21:29;13.20;99.90
13426;DHT22;6785;57.918;12.530;2022-10-31T04:23:57;13.20;99.90
13426;DHT22;6785;57.918;12.530;2022-10-31T04:26:24;13.30;99.90
13426;DHT22;6785;57.918;12.530;2022-10-31T04:28:51;13.30;99.90
13426;DHT22;6785;57.918;12.530;2022-10-31T04:31:18;13.30;99.90
13426;DHT22;6785;57.918;12.530;2022-10-31T04:33:45;13.30;99.90
13426;DHT22;6785;57.918;12.530;2022-10-31T04:36:12;13.30;99.90
13426;DHT22;6785;57.918;12.530;2022-10-31T04:38:41;13.20;99.90
13426;DHT22;6785;57.918;12.530;2022-10-31T04:41:08;13.20;99.90
13426;DHT22;6785;57.918;12.530;2022-10-31T04:43:35;13.20;99.90
13426;DHT22;6785;57.918;12.530;2022-10-31T04:46:02;13.20;99.90
13426;DHT22;6785;57.918;12.530;2022-10-31T04:48:29;13.20;99.90
13426;DHT22;6785;57.918;12.530;2022-10-31T04:50:59;13.20;99.90
13426;DHT22;6785;57.918;12.530;2022-10-31T04:53:26;13.20;99.90
13426;DHT22;6785;57.918;12.530;2022-10-31T04:55:55;13.20;99.90
13426;DHT22;6785;57.918;12.530;2022-10-31T04:58:24;13.20;99.90
13426;DHT22;6785;57.918;12.530;2022-10-31T05:00:52;13.20;99.90
13426;DHT22;6785;57.918;12.530;2022-10-31T05:03:19;13.20;99.90
13426;DHT22;6785;57.918;12.530;2022-10-31T05:05:47;13.20;99.90
13426;DHT22;6785;57.918;12.530;2022-10-31T05:08:14;13.20;99.90
13426;DHT22;6785;57.918;12.530;2022-10-31T05:10:41;13.20;99.90
13426;DHT22;6785;57.918;12.530;2022-10-31T05:13:10;13.10;99.90
13426;DHT22;6785;57.918;12.530;2022-10-31T05:15:37;13.10;99.90
13426;DHT22;6785;57.918;12.530;2022-10-31T05:18:04;13.10;99.90
13426;DHT22;6785;57.918;12.530;2022-10-31T05:20:32;13.10;99.90
13426;DHT22;6785;57.918;12.530;2022-10-31T05:22:59;13.00;99.90
13426;DHT22;6785;57.918;12.530;2022-10-31T05:25:28;13.00;99.90
13426;DHT22;6785;57.918;12.530;2022-10-31T05:27:56;13.00;99.90
13426;DHT22;6785;57.918;12.530;2022-10-31T05:30:26;12.90;99.90
13426;DHT22;6785;57.918;12.530;2022-10-31T05:32:55;13.00;99.90
13426;DHT22;6785;57.918;12.530;2022-10-31T05:35:23;13.00;99.90
13426;DHT22;6785;57.918;12.530;2022-10-31T05:37:52;13.00;99.90
13426;DHT22;6785;57.918;12.530;2022-10-31T05:40:20;13.00;99.90
13426;DHT22;6785;57.918;12.530;2022-10-31T05:42:50;13.00;99.90
13426;DHT22;6785;57.918;12.530;2022-10-31T05:45:19;13.00;99.90
13426;DHT22;6785;57.918;12.530;2022-10-31T05:47:52;13.00;99.90
13426;DHT22;6785;57.918;12.530;2022-10-31T05:50:19;13.00;99.90
13426;DHT22;6785;57.918;12.530;2022-10-31T05:52:47;13.00;99.90
13426;DHT22;6785;57.918;12.530;2022-10-31T05:55:14;13.10;99.90
13426;DHT22;6785;57.918;12.530;2022-10-31T05:57:41;13.00;99.90
13426;DHT22;6785;57.918;12.530;2022-10-31T06:00:09;13.00;99.90
13426;DHT22;6785;57.918;12.530;2022-10-31T06:02:36;13.10;99.90
13426;DHT22;6785;57.918;12.530;2022-10-31T06:05:05;13.10;99.90
13426;DHT22;6785;57.918;12.530;2022-10-31T06:07:33;13.00;99.90
13426;DHT22;6785;57.918;12.530;2022-10-31T06:10:01;13.10;99.90
13426;DHT22;6785;57.918;12.530;2022-10-31T06:12:30;13.00;99.90
13426;DHT22;6785;57.918;12.530;2022-10-31T06:14:57;13.10;99.90
13426;DHT22;6785;57.918;12.530;2022-10-31T06:17:24;13.10;99.90
13426;DHT22;6785;57.918;12.530;2022-10-31T06:19:51;13.10;99.90
13426;DHT22;6785;57.918;12.530;2022-10-31T06:22:19;13.10;99.90
13426;DHT22;6785;57.918;12.530;2022-10-31T06:24:46;13.10;99.90
13426;DHT22;6785;57.918;12.530;2022-10-31T06:27:13;13.10;99.90
13426;DHT22;6785;57.918;12.530;2022-10-31T06:29:40;13.10;99.90
13426;DHT22;6785;57.918;12.530;2022-10-31T06:32:09;13.10;99.90
13426;DHT22;6785;57.918;12.530;2022-10-31T06:34:37;13.10;99.90
13426;DHT22;6785;57.918;12.530;2022-10-31T06:37:05;13.10;99.90
13426;DHT22;6785;57.918;12.530;2022-10-31T06:39:34;13.10;99.90
13426;DHT22;6785;57.918;12.530;2022-10-31T06:42:01;13.10;99.90
13426;DHT22;6785;57.918;12.530;2022-10-31T06:44:29;13.10;99.90
13426;DHT22;6785;57.918;12.530;2022-10-31T06:46:56;13.10;99.90
13426;DHT22;6785;57.918;12.530;2022-10-31T06:49:24;13.10;99.90
13426;DHT22;6785;57.918;12.530;2022-10-31T06:51:51;13.10;99.90
13426;DHT22;6785;57.918;12.530;2022-10-31T06:54:18;13.10;99.90
13426;DHT22;6785;57.918;12.530;2022-10-31T06:56:47;13.10;99.90
13426;DHT22;6785;57.918;12.530;2022-10-31T06:59:14;13.10;99.90
13426;DHT22;6785;57.918;12.530;2022-10-31T07:01:42;13.10;99.90
13426;DHT22;6785;57.918;12.530;2022-10-31T07:04:09;13.10;99.90
13426;DHT22;6785;57.918;12.530;2022-10-31T07:06:37;13.00;99.90
13426;DHT22;6785;57.918;12.530;2022-10-31T07:09:04;13.00;99.90
13426;DHT22;6785;57.918;12.530;2022-10-31T07:11:31;13.00;99.90
13426;DHT22;6785;57.918;12.530;2022-10-31T07:13:59;13.00;99.90
13426;DHT22;6785;57.918;12.530;2022-10-31T07:16:26;13.00;99.90
13426;DHT22;6785;57.918;12.530;2022-10-31T07:18:53;13.00;99.90
13426;DHT22;6785;57.918;12.530;2022-10-31T07:21:20;13.10;99.90
13426;DHT22;6785;57.918;12.530;2022-10-31T07:23:48;13.10;99.90
13426;DHT22;6785;57.918;12.530;2022-10-31T07:26:15;13.10;99.90
13426;DHT22;6785;57.918;12.530;2022-10-31T07:28:42;13.20;99.90
13426;DHT22;6785;57.918;12.530;2022-10-31T07:31:10;13.20;99.90
13426;DHT22;6785;57.918;12.530;2022-10-31T07:33:37;13.30;99.90
13426;DHT22;6785;57.918;12.530;2022-10-31T07:36:05;13.30;99.90
13426;DHT22;6785;57.918;12.530;2022-10-31T07:38:32;13.40;99.90
13426;DHT22;6785;57.918;12.530;2022-10-31T07:40:59;13.30;99.90
13426;DHT22;6785;57.918;12.530;2022-10-31T07:43:26;13.30;99.90
13426;DHT22;6785;57.918;12.530;2022-10-31T07:45:53;13.40;99.90
13426;DHT22;6785;57.918;12.530;2022-10-31T07:48:22;13.40;99.90
13426;DHT22;6785;57.918;12.530;2022-10-31T07:50:49;13.40;99.90
13426;DHT22;6785;57.918;12.530;2022-10-31T07:53:16;13.40;99.90
13426;DHT22;6785;57.918;12.530;2022-10-31T07:55:44;13.50;99.90
13426;DHT22;6785;57.918;12.530;2022-10-31T07:58:12;13.50;99.90
13426;DHT22;6785;57.918;12.530;2022-10-31T08:00:42;13.50;99.90
13426;DHT22;6785;57.918;12.530;2022-10-31T08:03:11;13.50;99.90
13426;DHT22;6785;57.918;12.530;2022-10-31T08:05:41;13.50;99.90
13426;DHT22;6785;57.918;12.530;2022-10-31T08:08:10;13.50;99.90
13426;DHT22;6785;57.918;12.530;2022-10-31T08:10:37;13.50;99.90
13426;DHT22;6785;57.918;12.530;2022-10-31T08:13:07;13.50;99.90
13426;DHT22;6785;57.918;12.530;2022-10-31T08:15:35;13.50;99.90
13426;DHT22;6785;57.918;12.530;2022-10-31T08:18:05;13.50;99.90
13426;DHT22;6785;57.918;12.530;2022-10-31T08:20:33;13.50;99.90
13426;DHT22;6785;57.918;12.530;2022-10-31T08:23:03;13.50;99.90
13426;DHT22;6785;57.918;12.530;2022-10-31T08:25:32;13.50;99.90
13426;DHT22;6785;57.918;12.530;2022-10-31T08:28:01;13.50;99.90
13426;DHT22;6785;57.918;12.530;2022-10-31T08:30:29;13.50;99.90
13426;DHT22;6785;57.918;12.530;2022-10-31T08:33:02;13.50;99.90
13426;DHT22;6785;57.918;12.530;2022-10-31T08:35:31;13.50;99.90
13426;DHT22;6785;57.918;12.530;2022-10-31T08:37:59;13.50;99.90
13426;DHT22;6785;57.918;12.530;2022-10-31T08:40:29;13.50;99.90
13426;DHT22;6785;57.918;12.530;2022-10-31T08:42:59;13.50;99.90
13426;DHT22;6785;57.918;12.530;2022-10-31T08:45:27;13.50;99.90
13426;DHT22;6785;57.918;12.530;2022-10-31T08:47:58;13.60;99.90
13426;DHT22;6785;57.918;12.530;2022-10-31T08:50:25;13.70;99.90
13426;DHT22;6785;57.918;12.530;2022-10-31T08:52:53;13.80;99.90
13426;DHT22;6785;57.918;12.530;2022-10-31T08:55:20;14.00;99.90
13426;DHT22;6785;57.918;12.530;2022-10-31T08:57:54;14.00;99.90
13426;DHT22;6785;57.918;12.530;2022-10-31T09:00:22;14.10;99.90
13426;DHT22;6785;57.918;12.530;2022-10-31T09:02:55;14.10;99.90
13426;DHT22;6785;57.918;12.530;2022-10-31T09:05:23;14.10;99.90
13426;DHT22;6785;57.918;12.530;2022-10-31T09:07:50;14.10;99.90
13426;DHT22;6785;57.918;12.530;2022-10-31T09:10:17;14.10;99.90
13426;DHT22;6785;57.918;12.530;2022-10-31T09:12:44;14.10;99.90
13426;DHT22;6785;57.918;12.530;2022-10-31T09:15:13;14.10;99.90
13426;DHT22;6785;57.918;12.530;2022-10-31T09:17:46;14.10;99.90
13426;DHT22;6785;57.918;12.530;2022-10-31T09:20:13;14.10;99.90
13426;DHT22;6785;57.918;12.530;2022-10-31T09:22:40;14.10;99.90
13426;DHT22;6785;57.918;12.530;2022-10-31T09:25:08;14.10;99.90
13426;DHT22;6785;57.918;12.530;2022-10-31T09:27:35;14.20;99.90
13426;DHT22;6785;57.918;12.530;2022-10-31T09:30:02;14.30;99.90
13426;DHT22;6785;57.918;12.530;2022-10-31T09:32:31;14.20;99.90
13426;DHT22;6785;57.918;12.530;2022-10-31T09:34:58;14.10;99.90
13426;DHT22;6785;57.918;12.530;2022-10-31T09:37:25;14.00;99.90
13426;DHT22;6785;57.918;12.530;2022-10-31T09:39:52;14.10;99.90
13426;DHT22;6785;57.918;12.530;2022-10-31T09:42:38;14.00;99.90
13426;DHT22;6785;57.918;12.530;2022-10-31T09:45:20;14.10;99.90
13426;DHT22;6785;57.918;12.530;2022-10-31T09:48:05;14.10;99.90
13426;DHT22;6785;57.918;12.530;2022-10-31T09:50:45;14.10;99.90
13426;DHT22;6785;57.918;12.530;2022-10-31T09:53:23;14.10;99.90
13426;DHT22;6785;57.918;12.530;2022-10-31T09:55:58;14.10;99.90
13426;DHT22;6785;57.918;12.530;2022-10-31T09:58:27;14.10;99.90
13426;DHT22;6785;57.918;12.530;2022-10-31T10:00:59;14.00;99.90
13426;DHT22;6785;57.918;12.530;2022-10-31T10:03:33;14.10;99.90
13426;DHT22;6785;57.918;12.530;2022-10-31T10:06:09;14.00;99.90
13426;DHT22;6785;57.918;12.530;2022-10-31T10:08:41;14.10;99.90
13426;DHT22;6785;57.918;12.530;2022-10-31T10:11:23;14.00;99.90
13426;DHT22;6785;57.918;12.530;2022-10-31T10:14:22;13.90;99.90
13426;DHT22;6785;57.918;12.530;2022-10-31T10:17:16;13.90;99.90
13426;DHT22;6785;57.918;12.530;2022-10-31T10:22:50;14.00;99.90
13426;DHT22;6785;57.918;12.530;2022-10-31T10:25:23;14.00;99.90
13426;DHT22;6785;57.918;12.530;2022-10-31T10:28:03;13.90;99.90
13426;DHT22;6785;57.918;12.530;2022-10-31T10:30:42;14.00;99.90
13426;DHT22;6785;57.918;12.530;2022-10-31T10:33:15;14.00;99.90
13426;DHT22;6785;57.918;12.530;2022-10-31T10:35:50;14.10;99.90
13426;DHT22;6785;57.918;12.530;2022-10-31T10:38:26;14.00;99.90
13426;DHT22;6785;57.918;12.530;2022-10-31T10:40:59;14.00;99.90
13426;DHT22;6785;57.918;12.530;2022-10-31T10:43:33;14.20;99.90
13426;DHT22;6785;57.918;12.530;2022-10-31T10:46:17;14.10;99.90
13426;DHT22;6785;57.918;12.530;2022-10-31T10:49:16;14.20;99.90
13426;DHT22;6785;57.918;12.530;2022-10-31T10:51:47;14.30;99.90
13426;DHT22;6785;57.918;12.530;2022-10-31T10:54:43;14.20;99.90
13426;DHT22;6785;57.918;12.530;2022-10-31T10:57:38;14.20;99.90
13426;DHT22;6785;57.918;12.530;2022-10-31T11:00:22;14.10;99.90
13426;DHT22;6785;57.918;12.530;2022-10-31T11:02:50;14.00;99.90
13426;DHT22;6785;57.918;12.530;2022-10-31T11:05:27;14.10;99.90
13426;DHT22;6785;57.918;12.530;2022-10-31T11:08:00;14.10;99.90
13426;DHT22;6785;57.918;12.530;2022-10-31T11:10:28;14.10;99.90
13426;DHT22;6785;57.918;12.530;2022-10-31T11:13:03;14.20;99.90
13426;DHT22;6785;57.918;12.530;2022-10-31T11:15:36;14.10;99.90
13426;DHT22;6785;57.918;12.530;2022-10-31T11:18:20;14.10;99.90
13426;DHT22;6785;57.918;12.530;2022-10-31T11:20:51;14.00;99.90
13426;DHT22;6785;57.918;12.530;2022-10-31T11:23:23;14.10;99.90
13426;DHT22;6785;57.918;12.530;2022-10-31T11:25:54;14.10;99.90
13426;DHT22;6785;57.918;12.530;2022-10-31T11:28:23;14.10;99.90
13426;DHT22;6785;57.918;12.530;2022-10-31T11:30:53;14.10;99.90
13426;DHT22;6785;57.918;12.530;2022-10-31T11:33:27;14.10;99.90
13426;DHT22;6785;57.918;12.530;2022-10-31T11:35:58;14.20;99.90
13426;DHT22;6785;57.918;12.530;2022-10-31T11:38:33;14.20;99.90
13426;DHT22;6785;57.918;12.530;2022-10-31T11:41:11;14.10;99.90
13426;DHT22;6785;57.918;12.530;2022-10-31T11:43:46;14.00;99.90
13426;DHT22;6785;57.918;12.530;2022-10-31T11:46:21;13.90;99.90
13426;DHT22;6785;57.918;12.530;2022-10-31T11:48:53;13.90;99.90
13426;DHT22;6785;57.918;12.530;2022-10-31T11:51:24;13.90;99.90
13426;DHT22;6785;57.918;12.530;2022-10-31T11:53:57;14.00;99.90
13426;DHT22;6785;57.918;12.530;2022-10-31T11:56:25;14.00;99.90
13426;DHT22;6785;57.918;12.530;2022-10-31T11:59:01;14.00;99.90
13426;DHT22;6785;57.918;12.530;2022-10-31T12:01:30;14.10;99.90
13426;DHT22;6785;57.918;12.530;2022-10-31T12:04:06;14.10;99.90
13426;DHT22;6785;57.918;12.530;2022-10-31T12:06:36;14.00;99.90
13426;DHT22;6785;57.918;12.530;2022-10-31T12:09:16;14.10;99.90
13426;DHT22;6785;57.918;12.530;2022-10-31T12:11:54;14.00;99.90
13426;DHT22;6785;57.918;12.530;2022-10-31T12:14:39;13.90;99.90
13426;DHT22;6785;57.918;12.530;2022-10-31T12:17:16;13.90;99.90
13426;DHT22;6785;57.918;12.530;2022-10-31T12:19:58;13.90;99.90
13426;DHT22;6785;57.918;12.530;2022-10-31T12:22:37;13.90;99.90
13426;DHT22;6785;57.918;12.530;2022-10-31T12:25:25;13.90;99.90
13426;DHT22;6785;57.918;12.530;2022-10-31T12:28:19;13.90;99.90
13426;DHT22;6785;57.918;12.530;2022-10-31T12:31:13;13.80;99.90
13426;DHT22;6785;57.918;12.530;2022-10-31T12:33:57;13.70;99.90
13426;DHT22;6785;57.918;12.530;2022-10-31T12:36:47;13.70;99.90
13426;DHT22;6785;57.918;12.530;2022-10-31T12:39:24;13.70;99.90
13426;DHT22;6785;57.918;12.530;2022-10-31T12:42:04;13.70;99.90
13426;DHT22;6785;57.918;12.530;2022-10-31T12:45:07;13.70;99.90
13426;DHT22;6785;57.918;12.530;2022-10-31T12:48:08;13.70;99.90
13426;DHT22;6785;57.918;12.530;2022-10-31T12:50:52;13.60;99.90
13426;DHT22;6785;57.918;12.530;2022-10-31T12:53:36;13.60;99.90
13426;DHT22;6785;57.918;12.530;2022-10-31T12:56:27;13.60;99.90
13426;DHT22;6785;57.918;12.530;2022-10-31T12:59:10;13.60;99.90
13426;DHT22;6785;57.918;12.530;2022-10-31T13:01:47;13.60;99.90
13426;DHT22;6785;57.918;12.530;2022-10-31T13:04:31;13.50;99.90
13426;DHT22;6785;57.918;12.530;2022-10-31T13:07:08;13.50;99.90
13426;DHT22;6785;57.918;12.530;2022-10-31T13:09:43;13.60;99.90
13426;DHT22;6785;57.918;12.530;2022-10-31T13:12:17;13.50;99.90
13426;DHT22;6785;57.918;12.530;2022-10-31T13:14:51;13.50;99.90
13426;DHT22;6785;57.918;12.530;2022-10-31T13:17:25;13.50;99.90
13426;DHT22;6785;57.918;12.530;2022-10-31T13:20:11;13.50;99.90
13426;DHT22;6785;57.918;12.530;2022-10-31T13:22:45;13.50;99.90
13426;DHT22;6785;57.918;12.530;2022-10-31T13:25:18;13.40;99.90
13426;DHT22;6785;57.918;12.530;2022-10-31T13:27:52;13.40;99.90
13426;DHT22;6785;57.918;12.530;2022-10-31T13:30:25;13.40;99.90
13426;DHT22;6785;57.918;12.530;2022-10-31T13:32:59;13.40;99.90
13426;DHT22;6785;57.918;12.530;2022-10-31T13:35:33;13.30;99.90
13426;DHT22;6785;57.918;12.530;2022-10-31T13:38:16;13.30;99.90
13426;DHT22;6785;57.918;12.530;2022-10-31T13:40:55;13.40;99.90
13426;DHT22;6785;57.918;12.530;2022-10-31T13:43:32;13.40;99.90
13426;DHT22;6785;57.918;12.530;2022-10-31T13:46:23;13.40;99.90
13426;DHT22;6785;57.918;12.530;2022-10-31T13:48:51;13.50;99.90
13426;DHT22;6785;57.918;12.530;2022-10-31T13:51:26;13.50;99.90
13426;DHT22;6785;57.918;12.530;2022-10-31T13:53:59;13.60;99.90
13426;DHT22;6785;57.918;12.530;2022-10-31T13:56:29;13.60;99.90
13426;DHT22;6785;57.918;12.530;2022-10-31T13:59:05;13.70;99.90
13426;DHT22;6785;57.918;12.530;2022-10-31T14:01:49;13.70;99.90
13426;DHT22;6785;57.918;12.530;2022-10-31T14:04:20;13.70;99.90
13426;DHT22;6785;57.918;12.530;2022-10-31T14:06:55;13.60;99.90
13426;DHT22;6785;57.918;12.530;2022-10-31T14:09:28;13.50;99.90
13426;DHT22;6785;57.918;12.530;2022-10-31T14:12:02;13.50;99.90
13426;DHT22;6785;57.918;12.530;2022-10-31T14:14:43;13.40;99.90
13426;DHT22;6785;57.918;12.530;2022-10-31T14:17:20;13.30;99.90
13426;DHT22;6785;57.918;12.530;2022-10-31T14:20:33;13.30;99.90
13426;DHT22;6785;57.918;12.530;2022-10-31T14:26:29;13.30;99.90
13426;DHT22;6785;57.918;12.530;2022-10-31T14:29:00;13.30;99.90
13426;DHT22;6785;57.918;12.530;2022-10-31T14:31:32;13.30;99.90
13426;DHT22;6785;57.918;12.530;2022-10-31T14:34:18;13.30;99.90
13426;DHT22;6785;57.918;12.530;2022-10-31T14:37:08;13.30;99.90
13426;DHT22;6785;57.918;12.530;2022-10-31T14:40:06;13.30;99.90
13426;DHT22;6785;57.918;12.530;2022-10-31T14:43:00;13.20;99.90
13426;DHT22;6785;57.918;12.530;2022-10-31T14:45:45;13.20;99.90
13426;DHT22;6785;57.918;12.530;2022-10-31T14:48:54;13.20;99.90
13426;DHT22;6785;57.918;12.530;2022-10-31T14:51:39;13.10;99.90
13426;DHT22;6785;57.918;12.530;2022-10-31T14:54:12;13.10;99.90
13426;DHT22;6785;57.918;12.530;2022-10-31T14:56:48;13.10;99.90
13426;DHT22;6785;57.918;12.530;2022-10-31T14:59:21;13.00;99.90
13426;DHT22;6785;57.918;12.530;2022-10-31T15:01:56;13.10;99.90
13426;DHT22;6785;57.918;12.530;2022-10-31T15:04:28;13.10;99.90
13426;DHT22;6785;57.918;12.530;2022-10-31T15:07:02;13.10;99.90
13426;DHT22;6785;57.918;12.530;2022-10-31T15:09:36;13.10;99.90
13426;DHT22;6785;57.918;12.530;2022-10-31T15:12:22;13.00;99.90
13426;DHT22;6785;57.918;12.530;2022-10-31T15:14:51;13.00;99.90
13426;DHT22;6785;57.918;12.530;2022-10-31T15:17:19;13.00;99.90
13426;DHT22;6785;57.918;12.530;2022-10-31T15:19:47;12.90;99.90
13426;DHT22;6785;57.918;12.530;2022-10-31T15:22:17;12.90;99.90
13426;DHT22;6785;57.918;12.530;2022-10-31T15:24:47;12.80;99.90
13426;DHT22;6785;57.918;12.530;2022-10-31T15:27:21;12.70;99.90
13426;DHT22;6785;57.918;12.530;2022-10-31T15:29:51;12.70;99.90
13426;DHT22;6785;57.918;12.530;2022-10-31T15:32:21;12.60;99.90
13426;DHT22;6785;57.918;12.530;2022-10-31T15:34:50;12.50;99.90
13426;DHT22;6785;57.918;12.530;2022-10-31T15:37:21;12.60;99.90
13426;DHT22;6785;57.918;12.530;2022-10-31T15:39:50;12.50;99.90
13426;DHT22;6785;57.918;12.530;2022-10-31T15:42:21;12.50;99.90
13426;DHT22;6785;57.918;12.530;2022-10-31T15:44:54;12.40;99.90
13426;DHT22;6785;57.918;12.530;2022-10-31T15:47:29;12.40;99.90
13426;DHT22;6785;57.918;12.530;2022-10-31T15:49:59;12.30;99.90
13426;DHT22;6785;57.918;12.530;2022-10-31T15:52:32;12.30;99.90
13426;DHT22;6785;57.918;12.530;2022-10-31T15:55:16;12.30;99.90
13426;DHT22;6785;57.918;12.530;2022-10-31T15:57:47;12.30;99.90
13426;DHT22;6785;57.918;12.530;2022-10-31T16:00:25;12.20;99.90
13426;DHT22;6785;57.918;12.530;2022-10-31T16:03:05;12.20;99.90
13426;DHT22;6785;57.918;12.530;2022-10-31T16:05:38;12.20;99.90
13426;DHT22;6785;57.918;12.530;2022-10-31T16:08:25;12.20;99.90
13426;DHT22;6785;57.918;12.530;2022-10-31T16:10:59;12.10;99.90
13426;DHT22;6785;57.918;12.530;2022-10-31T16:13:32;12.10;99.90
13426;DHT22;6785;57.918;12.530;2022-10-31T16:16:04;12.00;99.90
13426;DHT22;6785;57.918;12.530;2022-10-31T16:18:39;12.00;99.90